Time;durP1;ratioP1;P1;durP2;ratioP2;P2;SDS_P1;SDS_P2;PMS_P1;PMS_P2;Temp;Humidity;BMP_temperature;BMP_pressure;BME280_temperature;BME280_humidity;BME280_pressure;Samples;Min_cycle;Max_cycle;Signal;HPM_P1;HPM_P2
2022/02/18 00:01:04;;;;;;;12.93;3.53;;;;;;;9.33;54.73;96460.06;5062249;28;20560;-77
2022/02/18 00:03:33;;;;;;;13.85;3.42;;;;;;;9.31;55.16;96457.63;5060705;28;20099;-78
2022/02/18 00:06:02;;;;;;;16.67;4.50;;;;;;;9.31;55.00;96457.63;5061974;28;20052;-78
2022/02/18 00:08:30;;;;;;;11.75;3.28;;;;;;;9.31;54.53;96449.81;5061345;28;20049;-80
2022/02/18 00:10:57;;;;;;;16.38;2.80;;;;;;;9.30;54.60;96456.00;5061176;28;20045;-76
2022/02/18 00:13:25;;;;;;;19.65;5.13;;;;;;;9.29;54.02;96470.00;5061326;28;20045;-80
2022/02/18 00:15:52;;;;;;;13.45;3.28;;;;;;;9.28;54.53;96464.00;5060491;28;20056;-79
2022/02/18 00:18:19;;;;;;;14.52;3.92;;;;;;;9.27;53.98;96466.75;5061431;28;20044;-78
2022/02/18 00:20:47;;;;;;;22.08;3.83;;;;;;;9.24;54.06;96459.31;5060929;28;20053;-80
2022/02/18 00:23:16;;;;;;;16.33;3.30;;;;;;;9.23;54.62;96462.91;5060023;28;20049;-79
2022/02/18 00:25:43;;;;;;;13.85;3.78;;;;;;;9.23;55.16;96473.31;5060149;28;20103;-77
2022/02/18 00:28:11;;;;;;;11.90;3.40;;;;;;;9.20;54.53;96465.84;5058754;28;20049;-78
2022/02/18 00:30:38;;;;;;;18.00;3.50;;;;;;;9.19;54.58;96465.06;5058046;28;20057;-80
2022/02/18 00:33:06;;;;;;;13.30;2.78;;;;;;;9.18;54.91;96462.63;5066005;28;20048;-75
2022/02/18 00:35:33;;;;;;;15.63;3.35;;;;;;;9.15;54.25;96469.00;5077289;28;20036;-80
2022/02/18 00:38:02;;;;;;;14.07;2.95;;;;;;;9.16;54.38;96477.59;5076315;28;20029;-77
2022/02/18 00:40:31;;;;;;;26.17;5.60;;;;;;;9.15;54.89;96470.78;5062365;28;20068;-78
2022/02/18 00:42:58;;;;;;;22.45;4.32;;;;;;;9.16;54.86;96461.97;5062373;28;20060;-78
2022/02/18 00:45:26;;;;;;;14.65;3.45;;;;;;;9.14;54.64;96458.75;5063929;28;20055;-77
2022/02/18 00:47:54;;;;;;;13.63;3.10;;;;;;;9.13;55.13;96463.16;5062383;28;20045;-81
2022/02/18 00:50:23;;;;;;;15.38;3.38;;;;;;;9.14;54.97;96450.94;5061400;28;20048;-78
2022/02/18 00:52:51;;;;;;;13.93;3.85;;;;;;;9.12;54.87;96456.34;5058510;28;20060;-78
2022/02/18 00:55:18;;;;;;;16.20;3.45;;;;;;;9.10;54.43;96462.72;5057522;28;20063;-77
2022/02/18 00:57:47;;;;;;;15.25;3.25;;;;;;;9.06;55.30;96464.84;5057492;28;20049;-78
2022/02/18 01:00:16;;;;;;;13.02;2.90;;;;;;;9.05;54.73;96474.44;5057902;28;20088;-78
2022/02/18 01:02:45;;;;;;;14.45;3.15;;;;;;;9.04;55.10;96466.81;5057815;28;20053;-78
2022/02/18 01:05:13;;;;;;;18.67;3.70;;;;;;;9.02;55.00;96466.97;5057268;28;20056;-82
2022/02/18 01:07:43;;;;;;;13.90;4.00;;;;;;;9.03;54.80;96459.97;5057079;28;20049;-80
2022/02/18 01:10:11;;;;;;;19.63;3.35;;;;;;;9.02;54.91;96459.16;5058074;28;20048;-78
2022/02/18 01:12:39;;;;;;;17.60;3.95;;;;;;;9.00;54.41;96468.94;5057618;28;20056;-80
2022/02/18 01:15:10;;;;;;;10.43;2.90;;;;;;;8.99;55.11;96469.13;5059028;28;20052;-77
2022/02/18 01:17:38;;;;;;;17.40;3.25;;;;;;;8.97;54.75;96471.91;5057096;28;20060;-80
2022/02/18 01:20:08;;;;;;;18.25;3.72;;;;;;;8.97;55.63;96469.31;5056981;28;20135;-78
2022/02/18 01:22:35;;;;;;;16.73;3.80;;;;;;;8.97;54.87;96479.72;5058370;28;20044;-78
2022/02/18 01:25:04;;;;;;;13.38;3.72;;;;;;;8.97;54.73;96473.69;5057634;28;20075;-77
2022/02/18 01:27:31;;;;;;;23.20;3.13;;;;;;;8.95;54.66;96467.88;5057329;28;20055;-79
2022/02/18 01:29:59;;;;;;;13.25;3.97;;;;;;;8.93;54.57;96475.03;5059092;28;20053;-79
2022/02/18 01:32:28;;;;;;;14.55;3.63;;;;;;;8.93;54.73;96473.22;5056856;28;20052;-77
2022/02/18 01:34:55;;;;;;;11.05;2.42;;;;;;;8.95;55.35;96463.47;5056252;28;20049;-79
2022/02/18 01:37:23;;;;;;;17.60;3.92;;;;;;;8.95;55.68;96450.47;5057573;28;20052;-83
2022/02/18 01:39:50;;;;;;;15.00;3.05;;;;;;;8.96;55.64;96433.03;5056667;28;20053;-78
2022/02/18 01:42:19;;;;;;;16.73;3.38;;;;;;;8.94;55.07;96424.59;5056974;28;20529;-76
2022/02/18 01:44:48;;;;;;;15.18;3.20;;;;;;;8.93;54.42;96447.22;5057386;28;20045;-79
2022/02/18 01:47:19;;;;;;;16.45;3.70;;;;;;;8.91;55.01;96430.97;5060700;28;20049;-78
2022/02/18 01:49:50;;;;;;;13.50;3.33;;;;;;;8.92;55.12;96436.97;5062533;28;20051;-77
2022/02/18 01:52:18;;;;;;;15.55;3.15;;;;;;;8.94;55.62;96432.41;5060966;28;20052;-81
2022/02/18 01:54:46;;;;;;;25.67;5.70;;;;;;;8.96;55.13;96439.06;5060115;28;20049;-80
2022/02/18 01:57:14;;;;;;;12.70;3.15;;;;;;;8.97;55.90;96439.88;5059576;28;20052;-80
2022/02/18 01:59:42;;;;;;;19.33;3.05;;;;;;;9.00;55.49;96429.91;5059929;28;20049;-78
2022/02/18 02:02:09;;;;;;;13.85;3.30;;;;;;;9.02;55.45;96433.16;5061507;28;20445;-81
2022/02/18 02:04:37;;;;;;;14.45;3.45;;;;;;;9.04;55.10;96436.38;5062910;28;20045;-77
2022/02/18 02:07:07;;;;;;;11.95;3.47;;;;;;;9.05;55.32;96430.22;5064226;28;20057;-78
2022/02/18 02:09:35;;;;;;;13.32;3.08;;;;;;;9.07;55.82;96430.84;5064634;28;20041;-78
2022/02/18 02:12:03;;;;;;;15.70;3.10;;;;;;;9.10;55.35;96426.28;5062282;28;20057;-80
2022/02/18 02:14:31;;;;;;;17.80;3.80;;;;;;;9.10;55.19;96421.88;5061871;28;20045;-78
2022/02/18 02:16:58;;;;;;;15.07;2.78;;;;;;;9.11;54.98;96412.28;5062196;28;20351;-79
2022/02/18 02:19:27;;;;;;;15.10;3.83;;;;;;;9.13;55.11;96415.50;5062677;28;20147;-82
2022/02/18 02:21:56;;;;;;;15.88;3.00;;;;;;;9.14;55.23;96412.75;5062065;28;20053;-78
2022/02/18 02:24:25;;;;;;;14.98;2.88;;;;;;;9.17;55.87;96414.16;5063195;28;20049;-79
2022/02/18 02:26:53;;;;;;;17.85;3.03;;;;;;;9.17;55.19;96430.59;5061898;28;20041;-78
2022/02/18 02:29:20;;;;;;;13.05;2.80;;;;;;;9.18;55.37;96450.44;5060743;28;20052;-80
2022/02/18 02:31:48;;;;;;;12.73;2.85;;;;;;;9.18;55.10;96454.81;5060886;28;20048;-81
2022/02/18 02:34:16;;;;;;;18.92;3.38;;;;;;;9.18;55.15;96452.22;5060826;28;20049;-76
2022/02/18 02:36:44;;;;;;;11.98;2.60;;;;;;;9.17;55.40;96435.00;5060704;28;20064;-82
2022/02/18 02:39:12;;;;;;;12.57;2.70;;;;;;;9.18;55.37;96423.59;5061542;28;20499;-80
2022/02/18 02:41:40;;;;;;;11.40;2.05;;;;;;;9.18;55.91;96427.00;5062178;28;20106;-80
2022/02/18 02:44:08;;;;;;;13.50;3.42;;;;;;;9.18;55.39;96413.16;5062255;28;20461;-78
2022/02/18 02:46:36;;;;;;;12.27;2.78;;;;;;;9.18;55.74;96413.16;5062012;28;20564;-76
2022/02/18 02:49:04;;;;;;;10.52;3.10;;;;;;;9.18;55.50;96410.56;5061620;28;20084;-77
2022/02/18 02:51:32;;;;;;;13.52;3.47;;;;;;;9.18;56.36;96401.00;5061328;28;20052;-77
2022/02/18 02:54:00;;;;;;;11.98;3.45;;;;;;;9.16;55.72;96384.75;5061622;28;20056;-78
2022/02/18 02:56:28;;;;;;;8.70;2.72;;;;;;;9.16;56.06;96376.94;5062529;28;20404;-78
2022/02/18 02:58:57;;;;;;;13.85;3.25;;;;;;;9.16;55.55;96396.94;5062101;28;20052;-81
2022/02/18 03:01:25;;;;;;;15.95;2.92;;;;;;;9.15;56.11;96403.13;5062635;28;20514;-77
2022/02/18 03:03:52;;;;;;;15.07;2.70;;;;;;;9.13;55.82;96415.50;5061824;28;20049;-77
2022/02/18 03:06:20;;;;;;;13.68;3.42;;;;;;;9.12;56.16;96427.72;5061251;28;20064;-81
2022/02/18 03:08:48;;;;;;;12.05;3.45;;;;;;;9.14;56.40;96410.13;5061781;28;20048;-78
2022/02/18 03:11:15;;;;;;;12.68;2.38;;;;;;;9.14;56.48;96401.50;5061494;28;20049;-79
2022/02/18 03:13:43;;;;;;;14.05;3.50;;;;;;;9.14;56.94;96398.91;5061230;28;20055;-76
2022/02/18 03:16:12;;;;;;;14.25;2.97;;;;;;;9.13;56.25;96389.50;5060477;28;20064;-79
2022/02/18 03:18:40;;;;;;;14.18;2.70;;;;;;;9.13;57.54;96392.88;5061140;28;20053;-78
2022/02/18 03:21:07;;;;;;;8.43;2.35;;;;;;;9.14;56.43;96393.69;5060592;28;20045;-76
2022/02/18 03:23:35;;;;;;;9.68;2.70;;;;;;;9.14;56.34;96393.69;5059683;28;20053;-77
2022/02/18 03:26:04;;;;;;;16.85;3.58;;;;;;;9.14;57.02;96384.13;5059419;28;20056;-77
2022/02/18 03:28:31;;;;;;;10.27;2.65;;;;;;;9.14;56.58;96396.28;5059050;28;20045;-76
2022/02/18 03:30:59;;;;;;;15.00;3.65;;;;;;;9.15;57.11;96390.91;5059309;28;20048;-76
2022/02/18 03:33:28;;;;;;;11.07;2.53;;;;;;;9.18;56.73;96381.94;5059995;28;20052;-77
2022/02/18 03:35:55;;;;;;;13.20;3.53;;;;;;;9.20;57.29;96385.19;5059556;28;20418;-77
2022/02/18 03:38:25;;;;;;;13.45;2.80;;;;;;;9.20;57.29;96383.38;5059742;28;20067;-78
2022/02/18 03:40:52;;;;;;;14.10;3.35;;;;;;;9.21;57.17;96379.00;5059361;28;20057;-76
2022/02/18 03:43:21;;;;;;;11.95;2.78;;;;;;;9.20;56.74;96372.97;5059156;28;20052;-76
2022/02/18 03:45:49;;;;;;;12.05;2.80;;;;;;;9.20;57.38;96379.97;5059760;28;20056;-75
2022/02/18 03:48:16;;;;;;;13.25;2.58;;;;;;;9.19;57.10;96386.97;5061908;28;20049;-78
2022/02/18 03:50:45;;;;;;;12.05;2.88;;;;;;;9.20;57.44;96377.38;5061624;28;20144;-78
2022/02/18 03:53:14;;;;;;;12.15;3.08;;;;;;;9.19;56.99;96375.78;5062058;28;20060;-78
2022/02/18 03:55:42;;;;;;;12.75;3.35;;;;;;;9.19;57.31;96380.97;5060264;28;20514;-78
2022/02/18 03:58:09;;;;;;;9.93;2.97;;;;;;;9.19;56.72;96386.19;5060836;28;20052;-82
2022/02/18 04:00:37;;;;;;;14.25;3.13;;;;;;;9.18;57.19;96379.34;5060280;28;20052;-78
2022/02/18 04:03:04;;;;;;;6.93;2.30;;;;;;;9.16;57.05;96371.72;5059003;28;20053;-80
2022/02/18 04:05:32;;;;;;;14.43;2.60;;;;;;;9.15;56.73;96361.50;5058771;28;20059;-77
2022/02/18 04:08:01;;;;;;;10.70;2.33;;;;;;;9.16;57.07;96363.09;5057550;28;20354;-77
2022/02/18 04:10:29;;;;;;;11.55;3.38;;;;;;;9.15;57.19;96367.50;5057998;28;20415;-76
2022/02/18 04:12:56;;;;;;;6.25;2.28;;;;;;;9.16;57.33;96374.34;5060100;28;20045;-77
2022/02/18 04:15:24;;;;;;;13.02;2.35;;;;;;;9.16;56.76;96365.69;5060969;28;20332;-79
2022/02/18 04:17:51;;;;;;;10.18;2.33;;;;;;;9.13;57.00;96360.88;5061649;28;20055;-80
2022/02/18 04:20:19;;;;;;;15.25;2.75;;;;;;;9.13;57.77;96361.66;5063238;28;20049;-78
2022/02/18 04:23:08;;;;;;;10.82;2.70;;;;;;;9.13;57.32;96348.66;5075356;28;20040;-78
2022/02/18 04:25:36;;;;;;;12.63;2.40;;;;;;;9.13;57.16;96353.06;5077935;28;20029;-81
2022/02/18 04:28:05;;;;;;;11.73;2.78;;;;;;;9.12;58.01;96360.06;5070832;28;20071;-78
2022/02/18 04:30:34;;;;;;;13.93;2.67;;;;;;;9.10;57.51;96359.44;5065135;28;20084;-79
2022/02/18 04:33:01;;;;;;;9.57;2.33;;;;;;;9.11;57.89;96366.22;5063513;28;20068;-80
2022/02/18 04:35:30;;;;;;;12.65;2.67;;;;;;;9.12;57.50;96356.63;5062493;28;20057;-77
2022/02/18 04:37:57;;;;;;;7.53;2.50;;;;;;;9.11;58.48;96357.63;5061332;28;20049;-78
2022/02/18 04:40:26;;;;;;;15.90;3.42;;;;;;;9.12;58.53;96359.22;5061830;28;20055;-77
2022/02/18 04:42:54;;;;;;;10.20;2.58;;;;;;;9.13;58.21;96355.66;5061581;28;20053;-77
2022/02/18 04:45:21;;;;;;;10.40;2.88;;;;;;;9.13;58.24;96364.25;5060654;28;20434;-79
2022/02/18 04:47:49;;;;;;;7.82;2.05;;;;;;;9.13;57.07;96353.06;5060784;28;20048;-79
2022/02/18 04:50:16;;;;;;;9.27;2.28;;;;;;;9.11;57.83;96342.03;5060498;28;20495;-78
2022/02/18 04:52:44;;;;;;;10.32;2.70;;;;;;;9.11;58.34;96339.41;5059664;28;20056;-79
2022/02/18 04:55:12;;;;;;;12.00;2.05;;;;;;;9.09;57.18;96339.59;5061365;28;20056;-79
2022/02/18 04:57:46;;;;;;;10.27;4.05;;;;;;;9.05;56.66;96338.31;5060246;28;20169;-78
2022/02/18 05:00:14;;;;;;;12.68;3.05;;;;;;;9.02;57.59;96333.50;5060724;28;20048;-78
2022/02/18 05:02:44;;;;;;;13.05;2.83;;;;;;;9.01;56.86;96326.69;5060806;28;20045;-78
2022/02/18 05:05:11;;;;;;;12.25;3.20;;;;;;;8.96;56.62;96324.59;5060199;28;20487;-81
2022/02/18 05:07:39;;;;;;;9.65;2.45;;;;;;;8.92;56.82;96325.97;5059701;28;20057;-78
2022/02/18 05:10:08;;;;;;;10.75;2.03;;;;;;;8.93;57.46;96311.94;5059911;28;20052;-78
2022/02/18 05:12:36;;;;;;;6.13;1.67;;;;;;;8.94;58.52;96318.75;5061510;28;20059;-80
2022/02/18 05:15:06;;;;;;;13.65;2.70;;;;;;;8.94;57.04;96316.16;5063335;28;20053;-79
2022/02/18 05:17:34;;;;;;;14.57;3.40;;;;;;;8.92;56.83;96306.91;5062969;28;20527;-78
2022/02/18 05:20:02;;;;;;;10.05;2.30;;;;;;;8.92;58.62;96307.75;5061915;28;20056;-79
2022/02/18 05:22:29;;;;;;;10.20;2.88;;;;;;;8.91;57.14;96305.31;5062322;28;20056;-79
2022/02/18 05:24:57;;;;;;;16.25;3.33;;;;;;;8.84;56.67;96300.00;5062855;28;20060;-79
2022/02/18 05:27:24;;;;;;;13.32;2.65;;;;;;;8.79;56.80;96297.13;5062752;28;20049;-79
2022/02/18 05:29:52;;;;;;;11.27;2.67;;;;;;;8.75;56.87;96301.09;5061573;28;20052;-79
2022/02/18 05:32:21;;;;;;;15.70;4.63;;;;;;;8.69;56.81;96291.38;5061771;28;20053;-78
2022/02/18 05:34:49;;;;;;;17.70;5.35;;;;;;;8.63;56.68;96283.28;5060882;28;20049;-79
2022/02/18 05:37:16;;;;;;;14.35;4.28;;;;;;;8.57;57.19;96271.03;5060764;28;20049;-78
2022/02/18 05:39:44;;;;;;;12.13;3.03;;;;;;;8.53;57.00;96267.16;5060037;28;20479;-78
2022/02/18 05:42:11;;;;;;;14.35;5.65;;;;;;;8.46;57.16;96261.03;5060914;28;20061;-81
2022/02/18 05:44:39;;;;;;;18.60;4.80;;;;;;;8.37;57.15;96256.88;5061599;28;20060;-79
2022/02/18 05:47:07;;;;;;;17.33;6.95;;;;;;;8.29;57.69;96254.31;5061117;28;20049;-79
2022/02/18 05:49:36;;;;;;;18.58;6.32;;;;;;;8.20;57.98;96251.03;5061385;28;20056;-78
2022/02/18 05:52:04;;;;;;;14.68;5.03;;;;;;;8.16;58.10;96245.34;5061012;28;20059;-78
2022/02/18 05:54:31;;;;;;;13.80;5.43;;;;;;;8.12;58.21;96244.09;5060305;28;20049;-77
2022/02/18 05:56:59;;;;;;;13.02;4.85;;;;;;;8.10;58.43;96235.66;5061269;28;20049;-79
2022/02/18 05:59:26;;;;;;;15.48;4.18;;;;;;;8.10;58.36;96233.06;5060606;28;20049;-79
2022/02/18 06:01:54;;;;;;;14.25;5.07;;;;;;;8.08;58.50;96237.63;5060901;28;20071;-79
2022/02/18 06:04:22;;;;;;;9.73;4.20;;;;;;;8.06;58.62;96231.78;5059925;28;20522;-79
2022/02/18 06:06:50;;;;;;;12.02;3.78;;;;;;;8.07;59.07;96230.81;5059269;28;20522;-77
2022/02/18 06:09:18;;;;;;;10.82;3.65;;;;;;;8.05;58.86;96212.81;5059291;28;20052;-78
2022/02/18 06:11:45;;;;;;;12.60;4.07;;;;;;;8.03;58.75;96219.16;5059631;28;20418;-78
2022/02/18 06:14:26;;;;;;;19.63;4.07;;;;;;;8.02;58.64;96212.34;5065378;28;20057;-90
2022/02/18 06:17:06;;;;;;;15.00;3.88;;;;;;;8.02;59.08;96207.13;5072916;28;20101;-88
2022/02/18 06:19:38;;;;;;;;;;;;;;;8.02;59.24;96207.97;5072722;28;20048;-89
2022/02/18 06:22:15;;;;;;;9.48;3.53;;;;;;;8.04;59.32;96205.19;5076981;28;19908;-85
2022/02/18 06:24:52;;;;;;;11.75;3.50;;;;;;;8.07;59.13;96204.84;5074660;28;20045;-91
2022/02/18 06:27:21;;;;;;;12.85;3.83;;;;;;;8.08;58.51;96195.25;5053090;28;20101;-88
2022/02/18 06:33:01;;;;;;;7.63;3.15;;;;;;;8.11;59.13;96193.13;5055581;28;20041;-87
2022/02/18 06:35:33;;;;;;;14.02;3.35;;;;;;;8.16;58.67;96190.78;5060779;28;20060;-88
2022/02/18 06:38:04;;;;;;;13.48;3.58;;;;;;;8.21;58.64;96185.06;5060512;28;20029;-91
2022/02/18 06:43:27;;;;;;;12.00;4.20;;;;;;;8.27;58.39;96173.16;5056394;28;20041;-88
2022/02/18 06:46:13;;;;;;;10.00;2.40;;;;;;;8.32;58.38;96170.84;5069732;28;20045;-89
2022/02/18 06:48:52;;;;;;;16.25;3.42;;;;;;;8.31;58.15;96151.00;5061487;28;20055;-88
2022/02/18 06:51:26;;;;;;;11.05;3.05;;;;;;;8.27;57.87;96173.16;5048536;28;20049;-86
2022/02/18 06:53:56;;;;;;;8.27;2.88;;;;;;;8.22;57.99;96161.50;5045924;28;20061;-86
2022/02/18 06:56:48;;;;;;;13.23;3.85;;;;;;;8.17;58.38;96169.00;5045519;28;20046;-89
2022/02/18 07:02:17;;;;;;;11.68;4.15;;;;;;;8.17;58.39;96160.41;5044682;28;20049;-83
2022/02/18 07:04:51;;;;;;;14.27;3.97;;;;;;;8.15;58.13;96147.59;5043317;28;20053;-83
2022/02/18 07:07:23;;;;;;;21.08;6.28;;;;;;;8.15;58.45;96149.41;5044738;28;20080;-86
2022/02/18 07:10:15;;;;;;;11.52;3.58;;;;;;;8.15;58.28;96139.00;5044227;28;20057;-83
2022/02/18 07:12:55;;;;;;;18.67;4.93;;;;;;;8.15;58.16;96133.81;5043883;28;20088;-89
2022/02/18 07:15:38;;;;;;;12.00;4.40;;;;;;;8.16;58.25;96128.44;5056877;28;20045;-87
2022/02/18 07:18:26;;;;;;;13.00;4.03;;;;;;;8.18;58.53;96126.47;5069190;28;20498;-83
2022/02/18 07:20:59;;;;;;;12.07;3.42;;;;;;;8.24;58.34;96135.34;5070844;28;20059;-90
2022/02/18 07:23:35;;;;;;;13.48;3.70;;;;;;;8.28;58.67;96130.59;5069419;28;20053;-90
2022/02/18 07:26:25;;;;;;;11.18;3.65;;;;;;;8.33;59.27;96126.50;5062814;28;20056;-87
2022/02/18 07:28:53;;;;;;;13.73;3.30;;;;;;;8.36;58.75;96126.13;5061940;28;20045;-84
2022/02/18 07:31:21;;;;;;;15.77;4.45;;;;;;;8.38;58.48;96120.75;5045716;28;20052;-84
2022/02/18 07:33:48;;;;;;;11.23;3.60;;;;;;;8.41;58.56;96112.63;5039248;28;20050;-80
2022/02/18 07:36:16;;;;;;;14.70;4.30;;;;;;;8.41;58.83;96110.81;5040040;28;20057;-83
2022/02/18 07:38:44;;;;;;;13.23;4.22;;;;;;;8.45;59.40;96099.06;5042577;28;20061;-83
2022/02/18 07:41:13;;;;;;;11.00;3.88;;;;;;;8.49;59.01;96086.53;5039707;28;20054;-85
2022/02/18 07:43:41;;;;;;;14.45;3.67;;;;;;;8.52;58.74;96093.97;5040228;28;20046;-83
2022/02/18 07:46:13;;;;;;;13.45;3.58;;;;;;;8.54;58.85;96091.19;5041264;28;20053;-89
2022/02/18 07:48:45;;;;;;;13.77;3.75;;;;;;;8.58;59.15;96085.44;5046489;28;20060;-86
2022/02/18 07:51:14;;;;;;;10.77;3.50;;;;;;;8.63;58.64;96083.09;5059404;28;20101;-84
2022/02/18 07:53:46;;;;;;;10.68;2.63;;;;;;;8.70;58.83;96079.78;5058011;28;20053;-84
2022/02/18 07:56:24;;;;;;;8.63;2.70;;;;;;;8.78;59.39;96071.88;5051411;28;20109;-90
2022/02/18 07:59:09;;;;;;;6.55;2.05;;;;;;;8.85;59.20;96063.16;5054170;28;20080;-89
2022/02/18 08:01:41;;;;;;;12.25;3.08;;;;;;;8.92;60.63;96062.41;5046565;28;20518;-88
2022/02/18 08:04:25;;;;;;;8.85;2.08;;;;;;;8.99;60.50;96055.50;5045822;28;20113;-88
2022/02/18 08:07:02;;;;;;;11.73;2.40;;;;;;;9.02;59.78;96052.50;5044169;28;20115;-88
2022/02/18 08:09:36;;;;;;;10.10;2.53;;;;;;;9.06;59.48;96059.75;5045450;28;20053;-89
2022/02/18 08:12:23;;;;;;;8.50;2.40;;;;;;;9.11;59.18;96045.38;5046775;28;20061;-91
2022/02/18 08:15:03;;;;;;;11.65;2.60;;;;;;;9.11;59.34;96045.38;5047897;28;20115;-87
2022/02/18 08:17:35;;;;;;;15.55;2.47;;;;;;;9.15;59.81;96042.22;5043921;28;20056;-83
2022/02/18 08:20:12;;;;;;;9.45;2.65;;;;;;;9.17;60.48;96034.25;5042673;28;20053;-85
2022/02/18 08:22:49;;;;;;;12.43;2.63;;;;;;;9.19;59.97;96027.84;5041163;28;20092;-88
2022/02/18 08:25:30;;;;;;;14.38;3.72;;;;;;;9.22;59.65;96017.06;5046001;28;20060;-88
2022/02/18 08:28:05;;;;;;;15.82;3.20;;;;;;;9.27;60.46;96013.91;5043107;28;20045;-87
2022/02/18 08:30:34;;;;;;;10.15;2.53;;;;;;;9.31;60.16;96019.53;5042533;28;20045;-84
2022/02/18 08:33:02;;;;;;;13.88;2.60;;;;;;;9.33;60.02;96012.34;5041865;28;20550;-82
2022/02/18 08:35:30;;;;;;;14.98;3.42;;;;;;;9.35;60.72;96002.56;5038931;28;20075;-80
2022/02/18 08:37:58;;;;;;;8.15;2.20;;;;;;;9.35;60.50;96000.75;5040043;28;20080;-81
2022/02/18 08:40:25;;;;;;;5.00;1.73;;;;;;;9.37;60.78;96003.97;5038923;28;20057;-80
2022/02/18 08:42:54;;;;;;;8.40;1.85;;;;;;;9.38;61.01;95995.19;5040298;28;20053;-80
2022/02/18 08:45:24;;;;;;;7.15;2.13;;;;;;;9.40;61.95;95977.59;5040460;28;20396;-82
2022/02/18 08:47:51;;;;;;;9.70;2.00;;;;;;;9.42;61.43;95965.19;5044559;28;20113;-84
2022/02/18 08:50:19;;;;;;;8.90;2.17;;;;;;;9.46;61.97;95966.38;5044765;28;20060;-83
2022/02/18 08:52:47;;;;;;;10.88;2.20;;;;;;;9.52;62.04;95964.03;5043383;28;20055;-82
2022/02/18 08:55:16;;;;;;;7.32;2.13;;;;;;;9.54;61.66;95967.25;5040829;28;20058;-80
2022/02/18 08:57:46;;;;;;;9.43;2.05;;;;;;;9.58;61.98;95958.88;5040463;28;20057;-83
2022/02/18 09:00:17;;;;;;;9.98;2.78;;;;;;;9.61;62.06;95963.69;5038914;28;20468;-86
2022/02/18 09:02:47;;;;;;;8.30;2.00;;;;;;;9.65;62.62;95958.91;5039758;28;20041;-83
2022/02/18 09:05:16;;;;;;;7.18;2.03;;;;;;;9.68;62.36;95948.91;5038865;28;20072;-80
2022/02/18 09:07:44;;;;;;;7.13;1.92;;;;;;;9.73;62.50;95948.34;5037996;28;20444;-83
2022/02/18 09:10:13;;;;;;;8.25;2.35;;;;;;;9.78;62.95;95943.34;5040707;28;20045;-82
2022/02/18 09:12:41;;;;;;;7.35;2.22;;;;;;;9.82;62.54;95933.38;5040487;28;20042;-81
2022/02/18 09:15:11;;;;;;;10.68;2.17;;;;;;;9.87;62.25;95934.38;5040284;28;20050;-84
2022/02/18 09:17:40;;;;;;;9.93;2.25;;;;;;;9.92;62.18;95927.78;5039852;28;20049;-81
2022/02/18 09:20:10;;;;;;;7.95;2.60;;;;;;;9.98;62.43;95927.00;5036882;28;20065;-80
2022/02/18 09:22:39;;;;;;;9.07;2.10;;;;;;;10.06;62.73;95921.66;5037557;28;20076;-78
2022/02/18 09:25:12;;;;;;;7.05;1.40;;;;;;;10.16;62.81;95921.25;5044782;28;20054;-83
2022/02/18 09:27:46;;;;;;;8.88;2.60;;;;;;;10.25;62.15;95928.69;5043728;28;20072;-85
2022/02/18 09:30:14;;;;;;;5.55;1.52;;;;;;;10.35;62.29;95922.38;5045145;28;20049;-79
2022/02/18 09:33:02;;;;;;;8.98;2.22;;;;;;;10.45;61.79;95915.78;5048013;28;20045;-83
2022/02/18 09:35:31;;;;;;;6.93;2.35;;;;;;;10.53;61.17;95899.13;5048438;28;20057;-84
2022/02/18 09:38:04;;;;;;;8.38;2.38;;;;;;;10.61;62.33;95898.94;5064309;28;20052;-82
2022/02/18 09:40:37;;;;;;;5.35;1.65;;;;;;;10.67;61.90;95889.50;5064878;28;20048;-83
2022/02/18 09:43:12;;;;;;;9.38;2.53;;;;;;;10.71;61.03;95891.53;5065077;28;20072;-84
2022/02/18 09:45:55;;;;;;;10.73;2.70;;;;;;;10.75;60.64;95891.13;5046732;28;20045;-82
2022/02/18 09:48:27;;;;;;;13.18;2.60;;;;;;;10.77;60.71;95878.69;5052314;28;20068;-87
2022/02/18 09:50:57;;;;;;;11.50;3.60;;;;;;;10.78;60.55;95862.03;5055965;28;20034;-88
2022/02/18 09:53:26;;;;;;;13.15;4.38;;;;;;;10.77;60.64;95866.44;5055631;28;20041;-84
2022/02/18 09:55:56;;;;;;;8.80;3.13;;;;;;;10.79;61.01;95855.81;5052498;28;20055;-82
2022/02/18 09:58:29;;;;;;;11.95;2.92;;;;;;;10.80;60.66;95860.84;5055464;28;20537;-86
2022/02/18 10:00:57;;;;;;;8.95;2.80;;;;;;;10.80;60.95;95860.00;5055875;28;20037;-88
2022/02/18 10:03:25;;;;;;;9.52;3.05;;;;;;;10.83;60.88;95857.03;5057272;28;20037;-86
2022/02/18 10:05:54;;;;;;;6.30;2.40;;;;;;;10.87;61.64;95853.81;5056763;28;20037;-86
2022/02/18 10:08:25;;;;;;;8.00;2.45;;;;;;;10.92;62.39;95854.00;5060688;28;20038;-85
2022/02/18 10:11:00;;;;;;;5.32;1.55;;;;;;;10.97;61.65;95840.34;5060281;28;20068;-83
2022/02/18 10:13:32;;;;;;;7.13;1.95;;;;;;;11.01;61.58;95831.09;5060278;28;20053;-86
2022/02/18 10:16:19;;;;;;;9.23;2.00;;;;;;;11.07;61.42;95830.28;5060686;28;20097;-88
2022/02/18 10:18:49;;;;;;;7.03;2.33;;;;;;;11.10;60.99;95832.47;5057377;28;20069;-87
2022/02/18 10:21:19;;;;;;;7.05;1.80;;;;;;;11.11;60.79;95822.88;5057769;28;20072;-89
2022/02/18 10:26:38;;;;;;;5.68;2.20;;;;;;;11.13;60.83;95815.63;5077220;28;20045;-85
2022/02/18 10:29:07;;;;;;;8.75;2.10;;;;;;;11.16;60.81;95809.19;5078344;28;20045;-88
2022/02/18 10:31:47;;;;;;;7.28;2.28;;;;;;;11.19;60.79;95793.13;5076813;28;20363;-90
2022/02/18 10:34:20;;;;;;;5.13;1.80;;;;;;;11.21;60.79;95796.31;5078562;28;20067;-90
2022/02/18 10:36:53;;;;;;;13.32;3.28;;;;;;;11.23;60.69;95789.09;5093923;28;20049;-87
2022/02/18 10:39:27;;;;;;;5.20;2.05;;;;;;;11.22;60.97;95788.31;5074643;28;20063;-90
2022/02/18 10:42:00;;;;;;;8.88;2.50;;;;;;;11.22;60.67;95788.31;5072010;28;20433;-88
2022/02/18 10:44:31;;;;;;;8.75;2.15;;;;;;;11.25;60.79;95776.66;5072885;28;20072;-90
2022/02/18 10:47:06;;;;;;;7.30;2.17;;;;;;;11.27;61.39;95782.47;5076068;28;20053;-89
2022/02/18 10:49:48;;;;;;;7.95;2.30;;;;;;;11.31;60.88;95771.41;5073315;28;20051;-89
2022/02/18 10:52:25;;;;;;;3.55;2.15;;;;;;;11.34;61.31;95765.75;5073600;28;20049;-89
2022/02/18 10:55:11;;;;;;;5.75;1.70;;;;;;;11.41;61.73;95751.88;5070501;28;20080;-85
2022/02/18 10:58:13;;;;;;;4.70;1.17;;;;;;;11.50;62.45;95745.41;5070548;28;20433;-87
2022/02/18 11:00:45;;;;;;;3.30;0.70;;;;;;;11.65;62.18;95739.91;5076839;28;20051;-89
2022/02/18 11:03:26;;;;;;;4.13;1.05;;;;;;;11.88;62.24;95734.97;5074652;28;20053;-91
2022/02/18 11:05:54;;;;;;;3.25;0.80;;;;;;;12.10;61.66;95724.19;5077614;28;20108;-88
2022/02/18 11:08:55;;;;;;;2.28;0.88;;;;;;;12.25;61.71;95735.13;5074437;28;20052;-83
2022/02/18 11:11:31;;;;;;;3.35;0.60;;;;;;;12.41;61.13;95723.31;5070451;28;20053;-88
2022/02/18 11:14:12;;;;;;;3.60;0.90;;;;;;;12.56;61.21;95715.94;5059733;28;20069;-85
2022/02/18 11:16:42;;;;;;;2.80;1.00;;;;;;;12.69;61.13;95707.16;5078515;28;20047;-88
2022/02/18 11:19:13;;;;;;;2.75;0.85;;;;;;;12.77;60.89;95709.50;5079890;28;20040;-86
2022/02/18 11:22:02;;;;;;;4.55;1.33;;;;;;;12.84;60.91;95695.56;5079773;28;20072;-89
2022/02/18 11:24:32;;;;;;;4.03;0.55;;;;;;;12.87;60.59;95695.91;5079445;28;20160;-87
2022/02/18 11:27:03;;;;;;;1.65;0.60;;;;;;;12.97;60.35;95690.19;5076683;28;20032;-84
2022/02/18 11:29:35;;;;;;;3.53;0.80;;;;;;;13.07;60.65;95674.72;5068443;28;20479;-91
2022/02/18 11:32:20;;;;;;;2.83;0.70;;;;;;;13.17;60.36;95669.78;5067049;28;20552;-82
2022/02/18 11:35:14;;;;;;;5.72;0.95;;;;;;;13.30;61.18;95660.19;5065798;28;20049;-87
2022/02/18 11:38:11;;;;;;;3.42;1.27;;;;;;;13.37;60.37;95647.81;5061956;28;20415;-91
2022/02/18 11:40:46;;;;;;;3.15;0.60;;;;;;;13.57;59.67;95637.84;5044322;28;20514;-85
2022/02/18 11:43:27;;;;;;;2.63;0.77;;;;;;;14.07;59.26;95628.03;5049449;28;20141;-87
2022/02/18 11:46:00;;;;;;;6.03;1.20;;;;;;;14.87;56.89;95629.22;5055695;28;20053;-88
2022/02/18 11:48:50;;;;;;;1.15;0.50;;;;;;;15.78;55.99;95610.91;5055991;28;20097;-85
2022/02/18 11:51:21;;;;;;;2.85;0.52;;;;;;;-146.05;100.00;59461.22;5058851;28;20037;-87
2022/02/18 11:53:52;;;;;;;2.95;0.65;;;;;;;-146.05;100.00;59461.22;5058167;28;20046;-86
2022/02/18 11:56:54;;;;;;;;;;;;;;;;;;;;;
2022/02/18 11:59:43;;;;;;;3.92;0.80;;;;;;;-146.05;100.00;59461.22;5057954;28;20052;-87
2022/02/18 12:02:20;;;;;;;2.72;0.90;;;;;;;-146.05;100.00;59461.22;5052573;28;20045;-85
2022/02/18 12:05:05;;;;;;;2.72;0.68;;;;;;;-146.05;100.00;59461.22;5054483;28;20080;-85